createdAt,value
2023-03-06T12:01:42.725Z,11.30
2023-03-06T12:04:33.709Z,10.07
2023-03-06T12:07:10.318Z,4.70
2023-03-06T12:09:46.175Z,4.03
2023-03-06T12:12:26.572Z,3.83
2023-03-06T12:15:07.784Z,3.35
2023-03-06T12:17:54.101Z,3.28
2023-03-06T12:20:35.985Z,2.67
2023-03-06T12:23:19.220Z,2.40
2023-03-06T12:25:52.579Z,5.55
2023-03-06T12:28:38.014Z,2.47
2023-03-06T12:31:28.353Z,2.38
2023-03-06T12:34:15.334Z,3.47
2023-03-06T12:36:55.386Z,3.83
2023-03-06T12:39:36.059Z,25.33
2023-03-06T12:42:23.566Z,1.90
2023-03-06T12:45:30.610Z,1.88
2023-03-06T12:47:59.082Z,3.83
2023-03-06T12:50:30.695Z,3.97
2023-03-06T12:53:02.941Z,5.40
2023-03-06T12:55:38.207Z,2.63
2023-03-06T12:58:48.367Z,3.50
2023-03-06T13:01:38.117Z,1.95
2023-03-06T13:04:23.458Z,1.42
2023-03-06T13:07:05.036Z,5.18
2023-03-06T13:09:39.623Z,1.20
2023-03-06T13:12:28.748Z,2.75
2023-03-06T13:14:59.768Z,1.40
2023-03-06T13:17:34.201Z,1.30
2023-03-06T13:20:34.999Z,1.88
2023-03-06T13:23:50.396Z,1.83
2023-03-06T13:26:49.954Z,2.03
2023-03-06T13:29:48.603Z,1.40
2023-03-06T13:32:19.445Z,3.13
2023-03-06T13:34:49.880Z,1.90
2023-03-06T13:37:48.497Z,1.40
2023-03-06T13:40:34.730Z,1.63
2023-03-06T13:43:25.136Z,5.15
2023-03-06T13:45:53.104Z,2.08
2023-03-06T13:48:44.709Z,2.15
2023-03-06T13:51:24.362Z,1.52
2023-03-06T13:54:24.718Z,3.78
2023-03-06T13:57:39.531Z,2.22
2023-03-06T14:00:37.416Z,1.25
2023-03-06T14:03:35.136Z,1.35
2023-03-06T14:06:23.153Z,1.95
2023-03-06T14:08:51.409Z,2.95
2023-03-06T14:11:22.157Z,1.05
2023-03-06T14:13:54.900Z,1.05
2023-03-06T14:16:25.540Z,1.20
2023-03-06T14:18:56.181Z,1.45
2023-03-06T14:21:31.174Z,11.07
2023-03-06T14:26:31.753Z,1.80
2023-03-06T14:29:02.525Z,1.13
2023-03-06T14:31:33.274Z,1.30
2023-03-06T14:34:02.238Z,0.98
2023-03-06T14:36:35.091Z,1.65
2023-03-06T14:39:06.391Z,1.10
2023-03-06T14:41:36.954Z,1.20
2023-03-06T14:44:17.982Z,1.60
2023-03-06T14:46:46.914Z,1.17
2023-03-06T14:49:16.202Z,1.00
2023-03-06T14:51:46.896Z,1.30
2023-03-06T14:54:19.515Z,1.00
2023-03-06T14:56:50.442Z,1.20
2023-03-06T14:59:25.027Z,0.80
2023-03-06T15:01:57.741Z,0.80
2023-03-06T15:04:29.207Z,1.92
2023-03-06T15:06:59.235Z,0.85
2023-03-06T15:09:30.156Z,2.45
2023-03-06T15:12:00.519Z,3.45
2023-03-06T15:14:35.393Z,1.25
2023-03-06T15:17:28.919Z,1.77
2023-03-06T15:19:58.899Z,1.77
2023-03-06T15:22:30.821Z,2.80
2023-03-06T15:25:19.689Z,1.42
2023-03-06T15:27:50.944Z,1.25
2023-03-06T15:30:29.631Z,2.30
2023-03-06T15:33:11.618Z,1.25
2023-03-06T15:35:39.994Z,3.35
2023-03-06T15:38:25.394Z,1.88
2023-03-06T15:43:24.802Z,3.05
2023-03-06T15:45:58.716Z,3.63
2023-03-06T15:48:27.207Z,1.83
2023-03-06T15:50:55.327Z,5.60
2023-03-06T15:53:23.170Z,3.70
2023-03-06T15:55:51.962Z,2.08
2023-03-06T15:58:23.759Z,2.38
2023-03-06T16:00:53.673Z,3.60
2023-03-06T16:03:21.647Z,2.30
2023-03-06T16:05:49.634Z,1.85
2023-03-06T16:08:17.559Z,2.90
2023-03-06T16:10:46.426Z,2.00
2023-03-06T16:13:18.520Z,3.78
2023-03-06T16:15:49.678Z,3.75
2023-03-06T16:18:19.660Z,3.45
2023-03-06T16:20:47.918Z,2.33
2023-03-06T16:23:16.368Z,4.75
2023-03-06T16:25:48.759Z,7.22
2023-03-06T16:28:17.484Z,3.53
2023-03-06T16:30:45.891Z,4.28
2023-03-06T16:33:14.750Z,2.67
2023-03-06T16:35:46.465Z,7.25
2023-03-06T16:38:15.550Z,6.20
2023-03-06T16:40:43.496Z,17.83
2023-03-06T16:43:13.348Z,6.88
2023-03-06T16:45:42.644Z,6.32
2023-03-06T16:48:15.657Z,8.85
2023-03-06T16:50:45.437Z,8.48
2023-03-06T16:53:16.458Z,11.45
2023-03-06T16:55:44.335Z,4.57
2023-03-06T16:58:12.248Z,5.20
2023-03-06T17:00:40.226Z,6.05
2023-03-06T17:03:08.334Z,4.10
2023-03-06T17:05:38.156Z,2.15
2023-03-06T17:08:07.396Z,3.10
2023-03-06T17:10:35.352Z,5.05
2023-03-06T17:13:03.369Z,3.67
2023-03-06T17:15:31.362Z,9.50
2023-03-06T17:17:59.279Z,3.38
2023-03-06T17:20:27.149Z,3.75
2023-03-06T17:22:55.054Z,2.33
2023-03-06T17:25:24.498Z,8.13
2023-03-06T17:27:52.404Z,3.08
2023-03-06T17:30:20.415Z,6.05
2023-03-06T17:32:48.292Z,7.78
2023-03-06T17:35:16.191Z,9.32
2023-03-06T17:37:44.089Z,7.13
2023-03-06T17:40:13.517Z,2.97
2023-03-06T17:42:42.759Z,2.50
2023-03-06T17:45:11.790Z,6.47
2023-03-06T17:47:39.706Z,6.50
2023-03-06T17:50:08.083Z,2.20
2023-03-06T17:52:35.990Z,4.25
2023-03-06T17:55:04.290Z,3.85
2023-03-06T17:57:32.333Z,3.25
2023-03-06T18:00:01.661Z,3.60
2023-03-06T18:02:29.571Z,2.92
2023-03-06T18:04:58.423Z,2.88
2023-03-06T18:07:26.597Z,3.53
2023-03-06T18:09:54.483Z,5.20
2023-03-06T18:12:22.395Z,5.28
2023-03-06T18:14:50.699Z,4.47
2023-03-06T18:17:20.000Z,3.67
2023-03-06T18:19:47.909Z,1.95
2023-03-06T18:22:16.143Z,2.47
2023-03-06T18:24:44.126Z,5.70
2023-03-06T18:27:12.304Z,2.88
2023-03-06T18:29:40.836Z,4.82
2023-03-06T18:32:10.637Z,4.35
2023-03-06T18:34:40.083Z,2.22
2023-03-06T18:37:07.965Z,7.07
2023-03-06T18:39:35.854Z,2.45
2023-03-06T18:42:03.776Z,2.53
2023-03-06T18:44:31.681Z,2.67
2023-03-06T18:46:59.632Z,18.38
2023-03-06T18:49:27.725Z,3.85
2023-03-06T18:51:57.080Z,6.72
2023-03-06T18:54:28.362Z,6.53
2023-03-06T18:56:56.358Z,9.02
2023-03-06T18:59:24.398Z,8.40
2023-03-06T19:01:57.383Z,12.23
2023-03-06T19:04:25.400Z,6.97
2023-03-06T19:06:54.469Z,7.30
2023-03-06T19:09:23.876Z,3.90
2023-03-06T19:11:54.404Z,8.10
2023-03-06T19:14:22.693Z,4.57
2023-03-06T19:16:50.767Z,3.80
2023-03-06T19:19:18.663Z,3.65
2023-03-06T19:21:46.530Z,5.13
2023-03-06T19:24:14.400Z,6.32
2023-03-06T19:26:43.652Z,2.80
2023-03-06T19:29:11.512Z,7.68
2023-03-06T19:31:39.403Z,13.30
2023-03-06T19:34:07.357Z,13.82
2023-03-06T19:36:38.672Z,8.55
2023-03-06T19:39:07.911Z,10.90
2023-03-06T19:41:35.958Z,11.93
2023-03-06T19:44:05.865Z,15.40
2023-03-06T19:46:36.053Z,13.95
2023-03-06T19:49:11.588Z,11.23
2023-03-06T19:51:39.725Z,13.43
2023-03-06T19:54:07.622Z,17.58
2023-03-06T19:56:35.487Z,18.77
2023-03-06T19:59:04.694Z,16.83
2023-03-06T20:01:34.136Z,27.73
2023-03-06T20:04:03.142Z,27.27
2023-03-06T20:06:33.519Z,22.33
2023-03-06T20:09:03.377Z,27.65
2023-03-06T20:11:31.458Z,26.85
2023-03-06T20:14:01.012Z,32.90
2023-03-06T20:16:31.309Z,22.00
2023-03-06T20:19:00.279Z,17.70
2023-03-06T20:21:29.856Z,26.73
2023-03-06T20:23:58.232Z,28.50
2023-03-06T20:26:27.317Z,22.75
2023-03-06T20:28:55.720Z,29.80
2023-03-06T20:31:26.018Z,35.22
2023-03-06T20:33:57.726Z,31.33
2023-03-06T20:36:27.907Z,24.35
2023-03-06T20:38:56.399Z,25.67
2023-03-06T20:41:27.401Z,28.27
2023-03-06T20:43:55.763Z,21.75
2023-03-06T20:46:24.716Z,27.70
2023-03-06T20:48:55.916Z,22.63
2023-03-06T20:51:25.714Z,27.40
2023-03-06T20:53:54.045Z,20.98
2023-03-06T20:56:23.641Z,17.85
2023-03-06T20:58:51.861Z,20.00
2023-03-06T21:01:20.846Z,17.63
2023-03-06T21:03:49.062Z,20.83
2023-03-06T21:06:19.004Z,20.58
2023-03-06T21:08:47.226Z,24.83
2023-03-06T21:11:15.832Z,20.55
2023-03-06T21:13:43.703Z,28.10
2023-03-06T21:16:13.615Z,23.05
2023-03-06T21:18:41.764Z,23.92
2023-03-06T21:21:11.294Z,23.25
2023-03-06T21:23:41.096Z,32.55
2023-03-06T21:26:12.423Z,26.90
2023-03-06T21:28:40.480Z,23.95
2023-03-06T21:31:10.276Z,25.92
2023-03-06T21:33:39.243Z,31.00
2023-03-06T21:36:08.688Z,30.70
2023-03-06T21:38:36.804Z,25.90
2023-03-06T21:41:10.785Z,24.10
2023-03-06T21:43:38.885Z,27.63
2023-03-06T21:46:07.057Z,30.48
2023-03-06T21:48:35.352Z,27.58
2023-03-06T21:51:08.032Z,21.73
2023-03-06T21:53:36.520Z,27.23
2023-03-06T21:56:04.833Z,28.60
2023-03-06T21:58:34.409Z,30.33
2023-03-06T22:01:02.460Z,30.75
2023-03-06T22:03:30.369Z,30.17
2023-03-06T22:06:07.337Z,32.70
2023-03-06T22:08:35.183Z,31.27
2023-03-06T22:11:07.171Z,32.10
2023-03-06T22:13:36.594Z,34.13
2023-03-06T22:16:05.209Z,34.28
2023-03-06T22:18:33.497Z,35.72
2023-03-06T22:21:01.499Z,36.50
2023-03-06T22:23:29.360Z,38.83
2023-03-06T22:25:57.191Z,36.63
2023-03-06T22:28:25.055Z,39.92
2023-03-06T22:30:54.312Z,42.38
2023-03-06T22:33:22.152Z,39.60
2023-03-06T22:35:50.232Z,37.85
2023-03-06T22:38:19.108Z,43.00
2023-03-06T22:40:46.962Z,41.50
2023-03-06T22:43:14.842Z,40.88
2023-03-06T22:45:42.707Z,45.45
2023-03-06T22:48:11.883Z,39.78
2023-03-06T22:50:39.735Z,41.20
2023-03-06T22:53:07.607Z,41.28
